DFW weather

Dallas Fort Worth International Airport
Dallas-Fort Worth, Texas, United States

Public forecast

Using degrees Fahrenheit for public forecast. Weather courtesy of forecast.io.

Current aviation weather report (METAR) for Dallas Fort Worth International Airport

Retrieved 2020/04/01 09:53 UTC (1 hour ago):

KDFW 010953Z 08004KT 10SM FEW250 BKN300 09/08 A2995 RMK AO2 SLP137 T00890083

Aviation forecast (TAF) for Dallas Fort Worth International Airport

Retrieved 2020/04/01 06:22 UTC (5 hours ago):

TAF KDFW 010520Z 0106/0212 16005KT P6SM FEW250 FM011600 17014KT P6SM BKN250